Time;durP1;ratioP1;P1;durP2;ratioP2;P2;SDS_P1;SDS_P2;PMS_P1;PMS_P2;Temp;Humidity;BMP_temperature;BMP_pressure;BME280_temperature;BME280_humidity;BME280_pressure;Samples;Min_cycle;Max_cycle;Signal;HPM_P1;HPM_P2
2022/03/02 00:01:44;;;;;;;43.45;19.13;;;;;;;14.87;47.13;102535.94;4911931;29;20033;-48
2022/03/02 00:04:10;;;;;;;41.08;17.83;;;;;;;14.79;46.81;102527.97;4909180;29;20099;-50
2022/03/02 00:06:36;;;;;;;44.42;19.42;;;;;;;14.76;47.01;102518.38;4904893;29;20045;-50
2022/03/02 00:09:02;;;;;;;35.97;18.93;;;;;;;14.66;46.93;102534.75;4914967;29;20055;-49
2022/03/02 00:11:28;;;;;;;41.10;19.95;;;;;;;14.68;46.92;102526.50;4905135;29;20041;-50
2022/03/02 00:13:54;;;;;;;37.67;17.40;;;;;;;14.66;46.80;102529.38;4914526;29;20063;-50
2022/03/02 00:16:22;;;;;;;42.80;18.52;;;;;;;14.49;47.24;102529.50;4914149;29;20052;-50
2022/03/02 00:18:48;;;;;;;39.53;18.88;;;;;;;14.56;47.25;102526.91;4891229;29;20077;-51
2022/03/02 00:21:14;;;;;;;40.00;19.70;;;;;;;14.60;46.74;102520.16;4918419;29;20037;-50
2022/03/02 00:23:40;;;;;;;37.38;18.27;;;;;;;14.49;47.59;102525.97;4908574;29;20036;-49
2022/03/02 00:26:06;;;;;;;43.63;19.02;;;;;;;14.36;47.64;102526.59;4912372;29;20052;-50
2022/03/02 00:28:31;;;;;;;40.60;20.70;;;;;;;14.43;47.60;102530.22;4915005;29;20032;-50
2022/03/02 00:30:56;;;;;;;46.80;19.83;;;;;;;14.53;47.22;102523.75;4905964;29;20036;-51
2022/03/02 00:33:22;;;;;;;45.17;20.45;;;;;;;14.46;47.65;102534.41;4906049;29;20057;-53
2022/03/02 00:35:47;;;;;;;41.17;19.27;;;;;;;14.32;47.84;102527.97;4914752;29;20085;-48
2022/03/02 00:38:13;;;;;;;38.53;18.17;;;;;;;14.33;47.80;102525.06;4912656;29;20037;-51
2022/03/02 00:40:41;;;;;;;42.42;18.92;;;;;;;14.28;47.63;102521.25;4907842;29;20041;-52
2022/03/02 00:43:08;;;;;;;40.13;19.30;;;;;;;14.31;47.45;102518.22;4917883;29;20041;-54
2022/03/02 00:45:34;;;;;;;44.10;20.23;;;;;;;14.34;47.25;102517.84;4891124;29;20038;-49
2022/03/02 00:48:00;;;;;;;40.35;19.42;;;;;;;14.51;46.81;102515.00;4912987;29;20041;-53
2022/03/02 00:50:26;;;;;;;38.53;18.73;;;;;;;14.39;46.91;102512.75;4914106;29;20036;-52
2022/03/02 00:52:52;;;;;;;40.95;19.13;;;;;;;14.38;46.96;102521.84;4906264;29;20040;-54
2022/03/02 00:55:20;;;;;;;38.08;18.25;;;;;;;14.38;47.18;102516.47;4917655;29;20049;-53
2022/03/02 00:57:46;;;;;;;38.17;19.02;;;;;;;14.46;47.06;102512.88;4908647;29;20104;-52
2022/03/02 01:00:12;;;;;;;40.90;19.33;;;;;;;14.33;47.42;102514.31;4911247;29;20100;-50
2022/03/02 01:02:38;;;;;;;39.23;18.90;;;;;;;14.43;47.16;102507.88;4915351;29;20048;-48
2022/03/02 01:05:05;;;;;;;39.28;19.38;;;;;;;14.42;47.01;102507.00;4905177;29;20306;-50
2022/03/02 01:07:31;;;;;;;38.85;18.92;;;;;;;14.33;47.15;102505.41;4916536;29;20061;-49
2022/03/02 01:09:57;;;;;;;42.40;20.25;;;;;;;14.32;47.19;102496.50;4909755;29;20052;-50
2022/03/02 01:12:23;;;;;;;40.20;19.45;;;;;;;14.37;47.13;102498.66;4909859;29;20040;-48
2022/03/02 01:14:49;;;;;;;39.88;19.20;;;;;;;14.39;46.90;102491.22;4916220;29;20032;-47
2022/03/02 01:17:15;;;;;;;44.13;19.80;;;;;;;14.52;46.53;102489.78;4905092;29;20033;-48
2022/03/02 01:19:40;;;;;;;37.77;18.47;;;;;;;14.56;46.43;102483.03;4915286;29;20056;-49
2022/03/02 01:22:06;;;;;;;41.97;19.57;;;;;;;14.56;46.20;102489.22;4910759;29;20037;-46
2022/03/02 01:24:32;;;;;;;43.43;20.47;;;;;;;14.54;46.31;102485.06;4908533;29;20052;-49
2022/03/02 01:26:58;;;;;;;41.25;19.15;;;;;;;14.45;46.78;102485.13;4917164;29;20064;-48
2022/03/02 01:29:23;;;;;;;37.13;19.03;;;;;;;13.59;49.35;102479.78;4905254;29;20044;-51
2022/03/02 01:31:49;;;;;;;54.93;22.07;;;;;;;13.35;50.85;102481.53;4913993;29;20296;-53
2022/03/02 01:34:16;;;;;;;36.00;18.38;;;;;;;13.37;50.96;102475.97;4911545;29;20041;-50
2022/03/02 01:36:42;;;;;;;;;;;;;;;13.53;51.33;102481.31;4907344;29;20105;-47
2022/03/02 01:39:07;;;;;;;43.27;19.60;;;;;;;14.10;48.94;102475.81;4917036;29;19915;-48
2022/03/02 01:41:34;;;;;;;39.57;19.53;;;;;;;14.36;47.62;102479.97;4906020;29;20044;-52
2022/03/02 01:43:59;;;;;;;41.47;18.85;;;;;;;14.46;47.12;102478.72;4912557;29;20037;-48
2022/03/02 01:46:25;;;;;;;42.67;21.77;;;;;;;14.42;47.17;102474.72;4912684;29;20041;-48
2022/03/02 01:48:52;;;;;;;35.80;18.30;;;;;;;14.32;47.10;102479.53;4905817;29;20328;-52
2022/03/02 01:51:18;;;;;;;37.92;18.02;;;;;;;14.45;46.61;102468.16;4916970;29;20040;-51
2022/03/02 01:53:45;;;;;;;38.25;18.20;;;;;;;14.55;45.99;102468.72;4907260;29;20032;-51
2022/03/02 01:56:11;;;;;;;38.50;18.25;;;;;;;14.55;45.99;102466.03;4910417;29;20061;-51
2022/03/02 01:58:37;;;;;;;35.40;18.17;;;;;;;14.53;45.94;102469.91;4913993;29;20045;-50
2022/03/02 02:01:04;;;;;;;39.30;19.27;;;;;;;14.36;46.11;102467.38;4904402;29;20100;-49
2022/03/02 02:03:30;;;;;;;34.88;17.73;;;;;;;14.57;45.88;102463.16;4916156;29;20109;-50
2022/03/02 02:05:56;;;;;;;40.83;19.05;;;;;;;14.67;45.56;102460.22;4900458;29;20041;-52
2022/03/02 02:08:22;;;;;;;42.42;19.65;;;;;;;14.65;45.51;102456.84;4911702;29;20036;-49
2022/03/02 02:10:48;;;;;;;35.00;19.42;;;;;;;14.59;45.53;102458.44;4905837;29;20064;-49
2022/03/02 02:13:13;;;;;;;40.85;19.20;;;;;;;14.51;45.56;102461.19;4916190;29;20044;-48
2022/03/02 02:15:39;;;;;;;41.17;18.53;;;;;;;14.53;45.59;102453.75;4905966;29;20040;-49
2022/03/02 02:18:04;;;;;;;45.50;19.77;;;;;;;14.45;46.18;102447.44;4911084;29;20040;-49
2022/03/02 02:20:40;;;;;;;41.50;17.93;;;;;;;14.49;46.13;102446.03;4912618;29;20044;-50
2022/03/02 02:23:06;;;;;;;39.90;18.45;;;;;;;14.47;45.84;102448.09;4903856;29;20117;-46
2022/03/02 02:25:32;;;;;;;48.75;20.77;;;;;;;14.48;45.82;102441.69;4915261;29;20037;-48
2022/03/02 02:27:59;;;;;;;35.80;17.42;;;;;;;14.57;45.39;102438.94;4908187;29;20036;-48
2022/03/02 02:30:26;;;;;;;40.05;18.40;;;;;;;14.49;45.47;102437.16;4918608;29;20032;-49
2022/03/02 02:32:52;;;;;;;47.03;19.05;;;;;;;14.34;45.80;102434.44;4905197;29;20045;-52
2022/03/02 02:35:18;;;;;;;40.55;20.00;;;;;;;14.36;45.68;102436.91;4917619;29;20036;-48
2022/03/02 02:37:43;;;;;;;44.63;19.97;;;;;;;14.22;46.05;102428.63;4913703;29;20037;-48
2022/03/02 02:40:15;;;;;;;35.67;18.03;;;;;;;14.20;46.00;102428.81;4909369;29;20040;-48
2022/03/02 02:42:44;;;;;;;46.03;19.65;;;;;;;14.22;46.01;102430.47;4906348;29;20041;-48
2022/03/02 02:45:14;;;;;;;42.15;18.13;;;;;;;14.03;46.44;102427.25;4899136;29;20048;-51
2022/03/02 02:47:40;;;;;;;40.28;19.80;;;;;;;14.14;46.45;102432.22;4905371;29;20043;-50
2022/03/02 02:50:16;;;;;;;40.78;18.02;;;;;;;14.37;45.90;102425.13;4910534;29;20061;-49
2022/03/02 02:52:41;;;;;;;38.60;18.58;;;;;;;14.26;45.97;102421.88;4913217;29;20052;-48
2022/03/02 02:55:11;;;;;;;37.93;19.03;;;;;;;14.18;46.21;102420.09;4903158;29;20056;-51
2022/03/02 02:57:37;;;;;;;46.05;19.50;;;;;;;14.24;45.97;102420.38;4914478;29;20033;-50
2022/03/02 03:00:08;;;;;;;37.47;18.42;;;;;;;14.24;45.64;102415.00;4908020;29;20083;-53
2022/03/02 03:02:34;;;;;;;38.60;18.30;;;;;;;14.07;45.72;102428.59;4907101;29;20103;-48
2022/03/02 03:04:59;;;;;;;45.40;21.33;;;;;;;14.01;45.56;102413.16;4915368;29;20040;-48
2022/03/02 03:07:25;;;;;;;36.50;16.92;;;;;;;13.89;45.82;102418.97;4903178;29;20040;-53
2022/03/02 03:09:51;;;;;;;36.17;17.80;;;;;;;13.72;45.92;102420.91;4912668;29;20049;-50
2022/03/02 03:12:17;;;;;;;41.42;18.55;;;;;;;13.89;45.63;102413.59;4909812;29;20056;-51
2022/03/02 03:14:43;;;;;;;41.85;18.50;;;;;;;13.96;45.28;102421.78;4905686;29;20044;-50
2022/03/02 03:17:08;;;;;;;35.63;16.33;;;;;;;13.98;45.33;102422.44;4915450;29;20102;-50
2022/03/02 03:19:35;;;;;;;35.63;17.50;;;;;;;13.84;45.52;102420.50;4904312;29;20049;-49
2022/03/02 03:22:07;;;;;;;35.63;17.13;;;;;;;13.66;45.76;102415.41;4911201;29;20044;-50
2022/03/02 03:24:33;;;;;;;35.40;17.63;;;;;;;13.56;45.62;102421.03;4911513;29;20060;-50
2022/03/02 03:27:00;;;;;;;38.55;17.08;;;;;;;13.64;45.34;102406.69;4903708;29;20040;-49
2022/03/02 03:29:25;;;;;;;42.25;16.90;;;;;;;13.64;45.50;102409.38;4915406;29;20037;-51
2022/03/02 03:31:51;;;;;;;34.65;17.13;;;;;;;13.65;45.24;102405.69;4906388;29;20045;-49
2022/03/02 03:34:18;;;;;;;40.40;16.98;;;;;;;13.51;45.73;102408.09;4908900;29;20057;-49
2022/03/02 03:36:44;;;;;;;40.47;17.57;;;;;;;13.69;45.63;102404.31;4912901;29;20040;-52
2022/03/02 03:39:10;;;;;;;41.97;17.92;;;;;;;13.58;45.75;102395.63;4902871;29;20284;-51
2022/03/02 03:41:36;;;;;;;42.85;18.42;;;;;;;13.61;45.62;102400.66;4914296;29;20037;-48
2022/03/02 03:44:02;;;;;;;41.27;17.60;;;;;;;13.74;45.39;102394.69;4907247;29;20100;-51
2022/03/02 03:46:27;;;;;;;37.90;17.30;;;;;;;13.54;46.11;102386.25;4908883;29;20045;-51
2022/03/02 03:48:53;;;;;;;34.30;17.07;;;;;;;13.59;45.84;102389.22;4917848;29;20095;-48
2022/03/02 03:51:20;;;;;;;40.20;17.73;;;;;;;13.62;45.93;102388.03;4906683;29;20065;-47
2022/03/02 03:53:45;;;;;;;38.35;16.65;;;;;;;13.72;45.97;102387.81;4916859;29;20037;-49
2022/03/02 03:56:11;;;;;;;40.27;17.40;;;;;;;13.71;46.21;102380.75;4911936;29;20071;-48
2022/03/02 03:58:37;;;;;;;40.03;17.42;;;;;;;13.75;46.15;102388.31;4909930;29;20047;-49
2022/03/02 04:01:03;;;;;;;37.05;17.40;;;;;;;13.90;45.90;102385.66;4918799;29;20048;-51
2022/03/02 04:03:29;;;;;;;37.53;17.50;;;;;;;13.89;46.33;102383.16;4906821;29;20076;-48
2022/03/02 04:05:55;;;;;;;39.07;17.33;;;;;;;13.93;46.01;102379.09;4898938;29;20037;-47
2022/03/02 04:08:22;;;;;;;37.13;17.80;;;;;;;13.94;46.17;102380.75;4913348;29;20299;-52
2022/03/02 04:10:49;;;;;;;37.42;17.63;;;;;;;14.04;46.17;102375.13;4908396;29;20037;-48
2022/03/02 04:13:15;;;;;;;37.90;17.20;;;;;;;14.08;46.25;102372.91;4902151;29;20048;-52
2022/03/02 04:15:40;;;;;;;41.17;19.58;;;;;;;13.98;46.95;102381.25;4907817;29;20051;-48
2022/03/02 04:18:07;;;;;;;39.88;18.75;;;;;;;14.10;46.94;102378.97;4913777;29;20037;-49
2022/03/02 04:20:35;;;;;;;45.58;17.10;;;;;;;14.13;46.52;102373.22;4914601;29;20036;-52
2022/03/02 04:23:02;;;;;;;38.08;18.67;;;;;;;14.03;46.83;102365.38;4906704;29;20077;-48
2022/03/02 04:25:28;;;;;;;45.20;19.73;;;;;;;13.97;46.66;102364.28;4918426;29;20037;-51
2022/03/02 04:27:54;;;;;;;36.17;16.92;;;;;;;13.95;46.86;102370.84;4909427;29;20096;-53
2022/03/02 04:30:20;;;;;;;39.87;19.00;;;;;;;13.89;46.75;102367.88;4911809;29;20040;-49
2022/03/02 04:32:46;;;;;;;36.67;17.17;;;;;;;13.97;46.69;102355.34;4916105;29;20054;-49
2022/03/02 04:35:13;;;;;;;40.83;18.50;;;;;;;13.98;46.94;102362.41;4889573;29;20044;-48
2022/03/02 04:37:39;;;;;;;40.28;18.95;;;;;;;13.85;47.45;102366.56;4917070;29;20068;-53
2022/03/02 04:40:06;;;;;;;;;;;;;;;14.01;47.42;102364.72;4910812;29;20108;-49
2022/03/02 04:42:32;;;;;;;38.78;17.35;;;;;;;14.01;47.45;102362.03;4909399;29;19920;-49
2022/03/02 04:44:58;;;;;;;40.28;18.27;;;;;;;13.90;47.74;102358.78;4917346;29;20103;-49
2022/03/02 04:47:24;;;;;;;42.97;17.97;;;;;;;13.84;47.63;102359.50;4905304;29;20052;-48
2022/03/02 04:49:49;;;;;;;36.08;18.02;;;;;;;13.73;47.77;102358.06;4904610;29;20060;-53
2022/03/02 04:52:15;;;;;;;44.33;19.02;;;;;;;13.76;47.92;102351.47;4921137;29;20065;-50
2022/03/02 04:57:25;;;;;;;44.25;19.25;;;;;;;13.60;48.48;102350.56;4919803;29;20060;-48
2022/03/02 04:59:51;;;;;;;41.38;19.05;;;;;;;13.60;47.94;102342.50;4914900;29;20064;-50
2022/03/02 05:02:17;;;;;;;39.57;18.77;;;;;;;13.55;48.55;102341.41;4911383;29;20068;-50
2022/03/02 05:04:43;;;;;;;38.72;19.05;;;;;;;13.58;48.52;102343.72;4908396;29;20073;-51
2022/03/02 05:07:09;;;;;;;41.13;18.58;;;;;;;13.65;48.63;102344.66;4917403;29;20028;-51
2022/03/02 05:09:34;;;;;;;39.00;20.40;;;;;;;13.50;49.19;102341.91;4905845;29;20052;-49
2022/03/02 05:12:02;;;;;;;44.83;21.63;;;;;;;13.24;50.06;102344.91;4913894;29;20040;-51
2022/03/02 05:14:29;;;;;;;43.67;20.95;;;;;;;13.38;50.00;102337.94;4912700;29;20076;-52
2022/03/02 05:16:55;;;;;;;39.63;18.90;;;;;;;13.26;50.51;102341.03;4906400;29;20097;-53
2022/03/02 05:19:20;;;;;;;35.97;18.23;;;;;;;13.20;51.07;102336.38;4917532;29;20036;-48
2022/03/02 05:21:45;;;;;;;43.83;20.70;;;;;;;13.21;51.29;102340.72;4906936;29;20084;-47
2022/03/02 05:24:11;;;;;;;39.63;18.98;;;;;;;13.32;50.96;102343.00;4911567;29;20088;-48
2022/03/02 05:26:37;;;;;;;43.47;19.77;;;;;;;13.46;50.47;102335.25;4913485;29;20044;-52
2022/03/02 05:29:03;;;;;;;45.60;19.63;;;;;;;13.44;50.56;102342.66;4905373;29;20033;-51
2022/03/02 05:31:28;;;;;;;38.70;18.90;;;;;;;13.27;51.88;102340.00;4917301;29;20094;-49
2022/03/02 05:33:54;;;;;;;44.37;20.17;;;;;;;13.21;51.65;102343.41;4908026;29;20028;-48
2022/03/02 05:36:19;;;;;;;48.45;21.23;;;;;;;13.12;52.25;102331.88;4911113;29;20049;-51
2022/03/02 05:38:45;;;;;;;37.92;18.45;;;;;;;13.14;52.43;102337.06;4914312;29;20061;-49
2022/03/02 05:41:11;;;;;;;52.23;20.77;;;;;;;13.13;52.40;102327.31;4904679;29;20041;-50
2022/03/02 05:43:36;;;;;;;45.35;19.15;;;;;;;13.18;52.13;102330.34;4916594;29;20061;-48
2022/03/02 05:46:02;;;;;;;42.27;18.23;;;;;;;13.07;52.69;102336.09;4908735;29;20052;-49
2022/03/02 05:48:28;;;;;;;43.28;17.92;;;;;;;13.11;52.21;102335.56;4909718;29;20033;-51
2022/03/02 05:50:53;;;;;;;38.97;18.57;;;;;;;12.99;53.34;102337.81;4915416;29;20059;-52
2022/03/02 05:53:19;;;;;;;46.47;20.03;;;;;;;13.08;52.96;102338.63;4904531;29;20056;-53
2022/03/02 05:55:44;;;;;;;41.60;18.80;;;;;;;13.05;52.76;102337.09;4915231;29;20056;-52
2022/03/02 05:58:10;;;;;;;46.27;19.83;;;;;;;13.02;53.03;102332.09;4909623;29;20040;-48
2022/03/02 06:00:36;;;;;;;46.20;19.83;;;;;;;12.97;52.98;102326.41;4908949;29;20068;-50
2022/03/02 06:03:02;;;;;;;42.53;19.77;;;;;;;12.81;53.65;102335.38;4916229;29;20108;-49
2022/03/02 06:05:28;;;;;;;44.00;20.50;;;;;;;12.70;54.20;102333.91;4904453;29;20100;-48
2022/03/02 06:07:53;;;;;;;45.43;19.47;;;;;;;12.69;54.31;102337.59;4913950;29;20048;-49
2022/03/02 06:10:19;;;;;;;45.92;20.17;;;;;;;12.63;55.20;102332.91;4909740;29;20092;-49
2022/03/02 06:12:46;;;;;;;45.72;19.10;;;;;;;12.60;55.68;102336.78;4907351;29;20044;-54
2022/03/02 06:15:12;;;;;;;41.33;18.70;;;;;;;12.59;55.61;102340.47;4916525;29;20100;-48
2022/03/02 06:17:39;;;;;;;42.42;19.55;;;;;;;12.57;56.36;102342.50;4904855;29;20024;-50
2022/03/02 06:20:06;;;;;;;42.03;19.67;;;;;;;12.51;56.46;102337.78;4912260;29;20040;-54
2022/03/02 06:22:32;;;;;;;45.63;20.75;;;;;;;12.55;56.63;102347.16;4911550;29;20042;-50
2022/03/02 06:24:58;;;;;;;43.42;19.95;;;;;;;12.51;56.31;102343.16;4905544;29;20073;-49
2022/03/02 06:27:24;;;;;;;44.63;20.13;;;;;;;12.45;56.73;102351.91;4916412;29;20036;-47
2022/03/02 06:29:49;;;;;;;52.35;21.02;;;;;;;12.47;56.51;102358.78;4906064;29;20040;-49
2022/03/02 06:32:15;;;;;;;49.27;19.23;;;;;;;12.53;55.82;102357.25;4910944;29;20040;-51
2022/03/02 06:34:42;;;;;;;40.47;18.88;;;;;;;12.56;55.59;102361.44;4912759;29;20044;-48
2022/03/02 06:37:08;;;;;;;46.03;20.98;;;;;;;12.54;55.62;102360.78;4918772;29;20108;-50
2022/03/02 06:39:33;;;;;;;46.73;20.40;;;;;;;12.72;54.90;102366.78;4903663;29;20045;-54
2022/03/02 06:42:05;;;;;;;44.53;20.00;;;;;;;12.56;55.47;102356.06;4912939;29;20056;-52
2022/03/02 06:44:39;;;;;;;41.47;19.20;;;;;;;12.67;54.80;102358.38;4911322;29;20072;-49
2022/03/02 06:47:09;;;;;;;48.60;20.20;;;;;;;12.70;54.62;102358.06;4904264;29;20077;-48
2022/03/02 06:49:59;;;;;;;51.08;21.42;;;;;;;12.68;54.83;102362.72;4918952;29;20061;-51
2022/03/02 06:52:32;;;;;;;51.20;20.70;;;;;;;12.66;55.00;102362.06;4909347;29;20057;-54
2022/03/02 06:55:03;;;;;;;43.45;19.05;;;;;;;12.68;55.34;102362.72;4913998;29;20051;-52
2022/03/02 06:57:28;;;;;;;43.47;20.73;;;;;;;12.82;54.76;102360.34;4903573;29;20036;-51
2022/03/02 07:00:04;;;;;;;47.70;20.08;;;;;;;12.85;54.81;102362.69;4913422;29;20073;-50
2022/03/02 07:02:46;;;;;;;47.70;19.65;;;;;;;12.94;54.78;102363.50;4910820;29;20044;-50
2022/03/02 07:05:11;;;;;;;45.10;19.63;;;;;;;12.98;55.25;102367.50;4903044;29;20037;-51
2022/03/02 07:07:37;;;;;;;42.33;19.40;;;;;;;12.93;56.25;102367.19;4915385;29;20040;-47
2022/03/02 07:10:05;;;;;;;48.65;19.50;;;;;;;12.86;58.66;102364.38;4907076;29;20036;-52
2022/03/02 07:12:31;;;;;;;54.42;20.38;;;;;;;12.99;57.17;102367.34;4908490;29;20048;-51
2022/03/02 07:14:57;;;;;;;53.20;20.60;;;;;;;13.12;56.36;102356.03;4913851;29;20099;-49
2022/03/02 07:17:23;;;;;;;46.83;20.38;;;;;;;13.13;56.21;102362.25;4903333;29;20068;-55
2022/03/02 07:19:50;;;;;;;47.17;19.38;;;;;;;13.26;54.36;102367.03;4913683;29;20097;-50
2022/03/02 07:22:19;;;;;;;44.20;20.47;;;;;;;13.23;53.29;102357.50;4908317;29;20060;-50
2022/03/02 07:24:57;;;;;;;41.70;21.77;;;;;;;13.30;53.08;102355.78;4906846;29;20291;-52
2022/03/02 07:27:23;;;;;;;44.17;19.48;;;;;;;13.52;52.43;102361.41;4915509;29;20108;-53
2022/03/02 07:29:53;;;;;;;39.20;18.80;;;;;;;13.44;53.26;102356.09;4905000;29;20056;-47
2022/03/02 07:32:23;;;;;;;45.53;20.50;;;;;;;13.45;53.43;102357.75;4910215;29;20078;-51
2022/03/02 07:34:58;;;;;;;40.80;19.77;;;;;;;13.54;54.15;102361.22;4912435;29;20055;-49
2022/03/02 07:37:26;;;;;;;41.95;21.27;;;;;;;13.50;53.51;102357.22;4903127;29;20101;-53
2022/03/02 07:39:51;;;;;;;47.42;19.92;;;;;;;13.54;53.92;102364.75;4913644;29;20049;-51
2022/03/02 07:42:19;;;;;;;48.37;20.07;;;;;;;13.67;53.55;102368.69;4908471;29;20067;-48
2022/03/02 07:44:50;;;;;;;44.28;20.13;;;;;;;13.69;53.89;102366.66;4889955;29;20145;-51
2022/03/02 07:47:17;;;;;;;52.13;20.63;;;;;;;13.73;53.92;102368.84;4915028;29;20040;-49
2022/03/02 07:49:43;;;;;;;45.40;18.85;;;;;;;13.75;54.02;102365.94;4903919;29;20032;-51
2022/03/02 07:52:10;;;;;;;44.88;20.27;;;;;;;13.72;54.37;102363.63;4911180;29;20048;-48
2022/03/02 07:54:40;;;;;;;50.47;22.10;;;;;;;13.78;54.29;102360.22;4910587;29;20041;-51
2022/03/02 07:57:10;;;;;;;44.33;20.27;;;;;;;13.97;53.28;102360.75;4903230;29;20059;-51
2022/03/02 07:59:39;;;;;;;45.10;18.80;;;;;;;14.07;52.29;102358.66;4898835;29;20037;-51
2022/03/02 08:02:07;;;;;;;45.92;19.98;;;;;;;14.10;51.96;102365.50;4906433;29;20040;-48
2022/03/02 08:04:35;;;;;;;46.97;19.58;;;;;;;14.09;51.67;102367.38;4908051;29;20060;-51
2022/03/02 08:07:01;;;;;;;45.42;20.33;;;;;;;14.00;51.42;102358.53;4913690;29;20044;-50
2022/03/02 08:09:27;;;;;;;41.58;19.67;;;;;;;14.07;51.01;102355.97;4902798;29;20059;-50
2022/03/02 08:11:53;;;;;;;42.30;19.27;;;;;;;14.14;49.97;102362.28;4918617;29;20028;-46
2022/03/02 08:14:18;;;;;;;39.17;18.83;;;;;;;14.17;49.84;102356.53;4909958;29;20048;-49
2022/03/02 08:16:48;;;;;;;38.92;19.65;;;;;;;14.20;49.61;102358.03;4911522;29;20064;-52
2022/03/02 08:19:13;;;;;;;42.55;20.67;;;;;;;14.34;49.25;102356.38;4908155;29;20045;-46
2022/03/02 08:21:42;;;;;;;44.00;20.05;;;;;;;14.45;48.43;102358.59;4902241;29;20036;-48
2022/03/02 08:24:10;;;;;;;39.33;19.08;;;;;;;14.47;48.22;102359.25;4911422;29;20045;-51
2022/03/02 08:26:39;;;;;;;40.72;19.80;;;;;;;14.49;47.93;102357.22;4910421;29;20036;-48
2022/03/02 08:29:11;;;;;;;41.45;19.10;;;;;;;14.62;47.07;102356.56;4903947;29;20044;-48
2022/03/02 08:31:39;;;;;;;45.30;20.35;;;;;;;14.77;47.00;102363.84;4915027;29;20069;-50
2022/03/02 08:34:06;;;;;;;42.38;19.70;;;;;;;14.85;46.40;102358.34;4909469;29;20084;-49
2022/03/02 08:36:33;;;;;;;39.83;19.17;;;;;;;14.28;47.25;102349.88;4911562;29;20053;-53
2022/03/02 08:39:04;;;;;;;41.10;19.73;;;;;;;13.95;48.50;102346.63;4916511;29;20130;-47
2022/03/02 08:41:31;;;;;;;36.22;18.02;;;;;;;14.96;45.93;102346.28;4905904;29;20056;-51
2022/03/02 08:43:57;;;;;;;45.10;18.95;;;;;;;15.49;43.84;102345.25;4916018;29;20064;-48
2022/03/02 08:46:24;;;;;;;38.88;18.60;;;;;;;15.88;42.69;102349.34;4911642;29;20037;-49
2022/03/02 08:48:50;;;;;;;39.10;18.70;;;;;;;16.30;41.84;102348.66;4909170;29;20072;-51
2022/03/02 08:51:19;;;;;;;36.60;17.90;;;;;;;16.41;40.92;102353.53;4918051;29;20040;-49
2022/03/02 08:53:46;;;;;;;39.58;18.48;;;;;;;16.23;41.40;102350.47;4906575;29;20040;-50
2022/03/02 08:56:12;;;;;;;34.83;16.67;;;;;;;16.37;40.04;102357.63;4913592;29;20088;-49
2022/03/02 08:58:38;;;;;;;32.50;16.70;;;;;;;16.68;38.00;102350.13;4912273;29;20064;-49
2022/03/02 09:01:04;;;;;;;30.13;15.07;;;;;;;16.85;37.26;102353.34;4906915;29;20040;-47
2022/03/02 09:03:34;;;;;;;41.97;17.02;;;;;;;16.66;38.66;102355.75;4917751;29;20044;-49
2022/03/02 09:06:02;;;;;;;34.30;16.53;;;;;;;16.80;38.99;102351.25;4908044;29;20060;-48
2022/03/02 09:08:27;;;;;;;37.27;17.83;;;;;;;16.56;39.49;102361.50;4911636;29;20292;-51
2022/03/02 09:10:53;;;;;;;37.17;16.52;;;;;;;16.85;38.95;102353.34;4914894;29;20349;-47
2022/03/02 09:13:20;;;;;;;32.28;17.00;;;;;;;16.98;37.56;102348.03;4905363;29;20068;-52
2022/03/02 09:15:46;;;;;;;34.37;17.33;;;;;;;16.76;38.02;102345.41;4900262;29;20065;-50
2022/03/02 09:18:11;;;;;;;37.07;17.13;;;;;;;16.81;37.77;102343.94;4909447;29;20267;-51
2022/03/02 09:20:40;;;;;;;34.07;16.90;;;;;;;16.86;37.55;102345.03;4910204;29;20052;-53
2022/03/02 09:23:05;;;;;;;29.53;15.47;;;;;;;16.97;36.81;102350.91;4916082;29;20050;-53
2022/03/02 09:25:32;;;;;;;35.63;17.33;;;;;;;16.96;36.27;102350.06;4904935;29;20284;-48
2022/03/02 09:27:58;;;;;;;30.95;16.33;;;;;;;18.19;34.70;102348.22;4915200;29;20033;-52
2022/03/02 09:30:24;;;;;;;34.42;16.58;;;;;;;19.45;32.83;102349.91;4910749;29;20051;-48
2022/03/02 09:32:54;;;;;;;36.67;16.33;;;;;;;20.47;31.72;102342.59;4908692;29;20049;-54
2022/03/02 09:35:22;;;;;;;37.80;18.33;;;;;;;21.37;30.02;102336.69;4917025;29;20041;-53
2022/03/02 09:37:49;;;;;;;32.37;16.47;;;;;;;22.20;28.94;102336.81;4905846;29;20295;-51
2022/03/02 09:40:24;;;;;;;31.30;16.70;;;;;;;22.88;28.02;102338.28;4912859;29;20276;-50
2022/03/02 09:42:57;;;;;;;30.97;16.83;;;;;;;23.16;27.26;102334.69;4897722;29;20279;-52
2022/03/02 09:45:25;;;;;;;27.20;15.13;;;;;;;23.59;26.40;102339.84;4904662;29;20279;-51
2022/03/02 09:47:56;;;;;;;28.13;15.50;;;;;;;23.80;25.57;102337.44;4920514;29;20291;-52
2022/03/02 09:50:23;;;;;;;31.33;17.40;;;;;;;24.18;24.52;102342.16;4911897;29;20057;-50
2022/03/02 09:52:52;;;;;;;26.87;15.73;;;;;;;24.34;24.24;102342.38;4913273;29;20116;-52
2022/03/02 09:55:23;;;;;;;26.90;15.30;;;;;;;24.19;23.89;102343.00;4904318;29;20080;-53
2022/03/02 09:57:54;;;;;;;29.80;14.43;;;;;;;24.66;23.86;102338.94;4916302;29;20040;-51
2022/03/02 10:00:21;;;;;;;26.83;15.63;;;;;;;24.67;24.22;102335.13;4909433;29;20044;-51
2022/03/02 10:02:52;;;;;;;31.83;15.20;;;;;;;24.78;23.66;102341.56;4908304;29;20048;-51
2022/03/02 10:05:23;;;;;;;27.90;15.27;;;;;;;25.54;23.07;102337.16;4916536;29;20032;-50
2022/03/02 10:08:07;;;;;;;27.40;13.93;;;;;;;25.63;22.71;102341.09;4905066;29;20099;-49
2022/03/02 10:10:36;;;;;;;29.07;14.37;;;;;;;25.44;22.87;102337.88;4910085;29;20037;-51
2022/03/02 10:13:08;;;;;;;24.17;14.70;;;;;;;26.12;21.44;102331.00;4914407;29;20040;-49
2022/03/02 10:15:36;;;;;;;44.20;15.97;;;;;;;25.69;21.43;102333.72;4903819;29;20045;-50
2022/03/02 10:18:04;;;;;;;24.07;13.73;;;;;;;26.25;20.49;102327.00;4913794;29;20064;-54
2022/03/02 10:20:34;;;;;;;23.13;12.73;;;;;;;26.55;20.56;102335.66;4910114;29;20036;-50
2022/03/02 10:23:26;;;;;;;28.17;13.87;;;;;;;27.17;19.52;102333.06;4906114;29;20036;-54
2022/03/02 10:26:16;;;;;;;24.60;13.87;;;;;;;26.66;20.16;102331.03;4905372;29;20047;-53
2022/03/02 10:29:04;;;;;;;24.00;13.70;;;;;;;27.29;19.18;102330.91;4899952;29;20116;-50
2022/03/02 10:31:44;;;;;;;25.47;14.70;;;;;;;27.80;18.79;102331.22;4915986;29;20047;-53
2022/03/02 10:34:27;;;;;;;25.67;14.13;;;;;;;27.16;19.38;102335.00;4906937;29;20069;-52
2022/03/02 10:37:04;;;;;;;25.07;13.17;;;;;;;27.61;19.31;102332.56;4899681;29;20040;-51
2022/03/02 10:40:09;;;;;;;22.27;14.13;;;;;;;27.03;19.97;102333.63;4916050;29;20051;-51
2022/03/02 10:42:44;;;;;;;35.70;14.83;;;;;;;28.14;18.97;102333.31;4909966;29;20041;-49
2022/03/02 10:45:21;;;;;;;25.37;14.73;;;;;;;28.56;18.36;102329.34;4904605;29;20073;-53
2022/03/02 10:47:58;;;;;;;23.67;13.60;;;;;;;28.59;18.73;102334.28;4903827;29;20059;-53
2022/03/02 10:50:28;;;;;;;23.73;13.67;;;;;;;29.14;18.13;102338.13;4919316;29;20047;-51
2022/03/02 10:52:55;;;;;;;25.20;13.93;;;;;;;28.86;18.09;102332.25;4907212;29;20064;-51
2022/03/02 10:55:22;;;;;;;23.63;13.73;;;;;;;29.02;18.08;102333.78;4915375;29;20045;-50
2022/03/02 10:57:50;;;;;;;26.97;14.80;;;;;;;28.84;18.26;102329.78;4903812;29;20032;-51
2022/03/02 11:00:17;;;;;;;24.57;13.73;;;;;;;28.80;18.97;102334.22;4911710;29;20037;-55
2022/03/02 11:02:48;;;;;;;24.80;14.80;;;;;;;28.29;18.29;102325.06;4910890;29;20037;-54
2022/03/02 11:05:18;;;;;;;24.80;14.43;;;;;;;28.00;18.93;102327.59;4903986;29;20045;-55
2022/03/02 11:07:44;;;;;;;25.47;15.20;;;;;;;28.43;19.52;102325.28;4915539;29;20037;-54
2022/03/02 11:10:15;;;;;;;22.20;14.50;;;;;;;28.70;20.33;102324.03;4906681;29;20037;-47
2022/03/02 11:12:43;;;;;;;22.60;14.90;;;;;;;29.04;18.29;102315.03;4908317;29;20037;-52
2022/03/02 11:15:09;;;;;;;25.27;14.27;;;;;;;29.13;18.89;102314.44;4913980;29;20048;-50